sensor_id;sensor_type;location;lat;lon;timestamp;P1;durP1;ratioP1;P2;durP2;ratioP2
52898;SDS011;38763;53.096;6.062;2023-05-24T00:01:17;27.48;;;6.32;;
52898;SDS011;38763;53.096;6.062;2023-05-24T00:03:50;20.17;;;4.93;;
52898;SDS011;38763;53.096;6.062;2023-05-24T00:06:17;35.10;;;5.60;;
52898;SDS011;38763;53.096;6.062;2023-05-24T00:08:43;23.48;;;5.68;;
52898;SDS011;38763;53.096;6.062;2023-05-24T00:11:09;28.42;;;5.18;;
52898;SDS011;38763;53.096;6.062;2023-05-24T00:13:35;28.73;;;5.50;;
52898;SDS011;38763;53.096;6.062;2023-05-24T00:16:01;27.92;;;5.60;;
52898;SDS011;38763;53.096;6.062;2023-05-24T00:18:27;18.40;;;4.28;;
52898;SDS011;38763;53.096;6.062;2023-05-24T00:20:55;24.08;;;4.85;;
52898;SDS011;38763;53.096;6.062;2023-05-24T00:23:23;23.02;;;5.43;;
52898;SDS011;38763;53.096;6.062;2023-05-24T00:25:49;25.17;;;5.00;;
52898;SDS011;38763;53.096;6.062;2023-05-24T00:28:16;29.00;;;5.35;;
52898;SDS011;38763;53.096;6.062;2023-05-24T00:30:41;30.00;;;5.82;;
52898;SDS011;38763;53.096;6.062;2023-05-24T00:33:07;21.77;;;4.75;;
52898;SDS011;38763;53.096;6.062;2023-05-24T00:35:33;26.70;;;5.60;;
52898;SDS011;38763;53.096;6.062;2023-05-24T00:37:58;21.02;;;4.97;;
52898;SDS011;38763;53.096;6.062;2023-05-24T00:40:24;24.60;;;5.20;;
52898;SDS011;38763;53.096;6.062;2023-05-24T00:42:50;20.40;;;5.40;;
52898;SDS011;38763;53.096;6.062;2023-05-24T00:45:15;22.52;;;5.25;;
52898;SDS011;38763;53.096;6.062;2023-05-24T00:47:41;22.75;;;5.05;;
52898;SDS011;38763;53.096;6.062;2023-05-24T00:50:07;24.13;;;4.65;;
52898;SDS011;38763;53.096;6.062;2023-05-24T00:52:36;24.45;;;5.20;;
52898;SDS011;38763;53.096;6.062;2023-05-24T00:55:03;24.90;;;5.82;;
52898;SDS011;38763;53.096;6.062;2023-05-24T00:57:29;20.17;;;5.25;;
52898;SDS011;38763;53.096;6.062;2023-05-24T00:59:56;25.08;;;4.82;;
52898;SDS011;38763;53.096;6.062;2023-05-24T01:02:22;19.75;;;5.18;;
52898;SDS011;38763;53.096;6.062;2023-05-24T01:04:49;27.55;;;4.95;;
52898;SDS011;38763;53.096;6.062;2023-05-24T01:07:17;27.73;;;6.65;;
52898;SDS011;38763;53.096;6.062;2023-05-24T01:12:45;27.20;;;5.40;;
52898;SDS011;38763;53.096;6.062;2023-05-24T01:15:24;29.60;;;5.07;;
52898;SDS011;38763;53.096;6.062;2023-05-24T01:25:53;22.88;;;4.55;;
52898;SDS011;38763;53.096;6.062;2023-05-24T01:28:24;20.73;;;4.45;;
52898;SDS011;38763;53.096;6.062;2023-05-24T01:30:51;23.05;;;4.75;;
52898;SDS011;38763;53.096;6.062;2023-05-24T01:33:19;24.75;;;5.18;;
52898;SDS011;38763;53.096;6.062;2023-05-24T01:35:45;24.27;;;4.45;;
52898;SDS011;38763;53.096;6.062;2023-05-24T01:38:10;28.10;;;5.88;;
52898;SDS011;38763;53.096;6.062;2023-05-24T01:40:36;22.65;;;4.85;;
52898;SDS011;38763;53.096;6.062;2023-05-24T01:43:14;26.13;;;4.95;;
52898;SDS011;38763;53.096;6.062;2023-05-24T01:51:22;23.88;;;5.88;;
52898;SDS011;38763;53.096;6.062;2023-05-24T01:53:52;25.80;;;5.70;;
52898;SDS011;38763;53.096;6.062;2023-05-24T01:56:21;22.42;;;4.85;;
52898;SDS011;38763;53.096;6.062;2023-05-24T01:58:49;28.52;;;5.68;;
52898;SDS011;38763;53.096;6.062;2023-05-24T02:01:16;21.52;;;4.68;;
52898;SDS011;38763;53.096;6.062;2023-05-24T02:03:42;18.80;;;4.50;;
52898;SDS011;38763;53.096;6.062;2023-05-24T02:06:08;18.15;;;4.38;;
52898;SDS011;38763;53.096;6.062;2023-05-24T02:08:34;20.20;;;4.70;;
52898;SDS011;38763;53.096;6.062;2023-05-24T02:11:00;24.05;;;4.38;;
52898;SDS011;38763;53.096;6.062;2023-05-24T02:13:26;20.25;;;4.90;;
52898;SDS011;38763;53.096;6.062;2023-05-24T02:15:52;24.58;;;4.22;;
52898;SDS011;38763;53.096;6.062;2023-05-24T02:18:18;26.75;;;4.70;;
52898;SDS011;38763;53.096;6.062;2023-05-24T02:20:44;18.17;;;4.72;;
52898;SDS011;38763;53.096;6.062;2023-05-24T02:23:10;18.55;;;4.60;;
52898;SDS011;38763;53.096;6.062;2023-05-24T02:25:36;21.48;;;4.70;;
52898;SDS011;38763;53.096;6.062;2023-05-24T02:28:02;21.73;;;4.13;;
52898;SDS011;38763;53.096;6.062;2023-05-24T02:30:27;24.38;;;4.38;;
52898;SDS011;38763;53.096;6.062;2023-05-24T02:32:53;23.38;;;4.68;;
52898;SDS011;38763;53.096;6.062;2023-05-24T02:35:19;24.08;;;4.40;;
52898;SDS011;38763;53.096;6.062;2023-05-24T02:37:45;21.33;;;4.60;;
52898;SDS011;38763;53.096;6.062;2023-05-24T02:40:11;21.60;;;4.65;;
52898;SDS011;38763;53.096;6.062;2023-05-24T02:42:36;19.75;;;4.35;;
52898;SDS011;38763;53.096;6.062;2023-05-24T02:45:02;21.45;;;4.35;;
52898;SDS011;38763;53.096;6.062;2023-05-24T02:47:28;23.30;;;4.50;;
52898;SDS011;38763;53.096;6.062;2023-05-24T02:49:54;25.25;;;4.15;;
52898;SDS011;38763;53.096;6.062;2023-05-24T02:52:20;21.20;;;5.03;;
52898;SDS011;38763;53.096;6.062;2023-05-24T02:54:47;26.55;;;4.13;;
52898;SDS011;38763;53.096;6.062;2023-05-24T02:57:13;27.35;;;5.25;;
52898;SDS011;38763;53.096;6.062;2023-05-24T02:59:39;19.02;;;4.60;;
52898;SDS011;38763;53.096;6.062;2023-05-24T03:02:05;29.58;;;4.32;;
52898;SDS011;38763;53.096;6.062;2023-05-24T03:04:30;25.52;;;4.38;;
52898;SDS011;38763;53.096;6.062;2023-05-24T03:06:56;25.70;;;4.18;;
52898;SDS011;38763;53.096;6.062;2023-05-24T03:09:21;26.83;;;4.65;;
52898;SDS011;38763;53.096;6.062;2023-05-24T03:11:47;21.85;;;4.20;;
52898;SDS011;38763;53.096;6.062;2023-05-24T03:14:13;20.35;;;4.22;;
52898;SDS011;38763;53.096;6.062;2023-05-24T03:16:41;21.77;;;4.93;;
52898;SDS011;38763;53.096;6.062;2023-05-24T03:19:07;29.48;;;4.43;;
52898;SDS011;38763;53.096;6.062;2023-05-24T03:21:32;25.83;;;4.68;;
52898;SDS011;38763;53.096;6.062;2023-05-24T03:23:58;25.55;;;3.83;;
52898;SDS011;38763;53.096;6.062;2023-05-24T03:26:24;17.27;;;4.20;;
52898;SDS011;38763;53.096;6.062;2023-05-24T03:28:50;21.58;;;3.97;;
52898;SDS011;38763;53.096;6.062;2023-05-24T03:31:18;35.15;;;4.75;;
52898;SDS011;38763;53.096;6.062;2023-05-24T03:33:44;21.02;;;5.43;;
52898;SDS011;38763;53.096;6.062;2023-05-24T03:36:10;23.10;;;4.82;;
52898;SDS011;38763;53.096;6.062;2023-05-24T03:38:36;27.70;;;4.35;;
52898;SDS011;38763;53.096;6.062;2023-05-24T03:41:01;23.17;;;4.50;;
52898;SDS011;38763;53.096;6.062;2023-05-24T03:43:27;23.08;;;4.55;;
52898;SDS011;38763;53.096;6.062;2023-05-24T03:45:53;23.90;;;4.20;;
52898;SDS011;38763;53.096;6.062;2023-05-24T03:48:19;23.77;;;4.90;;
52898;SDS011;38763;53.096;6.062;2023-05-24T03:50:45;23.00;;;4.25;;
52898;SDS011;38763;53.096;6.062;2023-05-24T03:53:11;19.20;;;4.00;;
52898;SDS011;38763;53.096;6.062;2023-05-24T03:55:36;21.55;;;4.35;;
52898;SDS011;38763;53.096;6.062;2023-05-24T03:58:02;23.13;;;4.25;;
52898;SDS011;38763;53.096;6.062;2023-05-24T04:00:28;24.88;;;4.10;;
52898;SDS011;38763;53.096;6.062;2023-05-24T04:02:53;18.65;;;4.07;;
52898;SDS011;38763;53.096;6.062;2023-05-24T04:05:20;18.05;;;4.20;;
52898;SDS011;38763;53.096;6.062;2023-05-24T04:07:46;16.52;;;4.30;;
52898;SDS011;38763;53.096;6.062;2023-05-24T04:10:11;22.80;;;4.53;;
52898;SDS011;38763;53.096;6.062;2023-05-24T04:12:37;18.23;;;4.38;;
52898;SDS011;38763;53.096;6.062;2023-05-24T04:15:05;19.95;;;3.95;;
52898;SDS011;38763;53.096;6.062;2023-05-24T04:17:31;21.23;;;4.22;;
52898;SDS011;38763;53.096;6.062;2023-05-24T04:19:59;22.98;;;4.80;;
52898;SDS011;38763;53.096;6.062;2023-05-24T04:22:25;21.52;;;3.85;;
52898;SDS011;38763;53.096;6.062;2023-05-24T04:24:51;19.65;;;3.85;;
52898;SDS011;38763;53.096;6.062;2023-05-24T04:27:17;18.60;;;4.07;;
52898;SDS011;38763;53.096;6.062;2023-05-24T04:29:43;23.45;;;4.20;;
52898;SDS011;38763;53.096;6.062;2023-05-24T04:32:10;23.73;;;3.70;;
52898;SDS011;38763;53.096;6.062;2023-05-24T04:34:38;23.33;;;3.90;;
52898;SDS011;38763;53.096;6.062;2023-05-24T04:37:06;25.23;;;3.88;;
52898;SDS011;38763;53.096;6.062;2023-05-24T04:39:32;19.92;;;4.38;;
52898;SDS011;38763;53.096;6.062;2023-05-24T04:41:58;20.90;;;3.83;;
52898;SDS011;38763;53.096;6.062;2023-05-24T04:44:24;23.73;;;5.07;;
52898;SDS011;38763;53.096;6.062;2023-05-24T04:46:50;29.02;;;4.75;;
52898;SDS011;38763;53.096;6.062;2023-05-24T04:49:15;25.15;;;4.60;;
52898;SDS011;38763;53.096;6.062;2023-05-24T04:51:41;21.83;;;4.10;;
52898;SDS011;38763;53.096;6.062;2023-05-24T04:54:07;19.55;;;4.28;;
52898;SDS011;38763;53.096;6.062;2023-05-24T04:56:33;22.58;;;4.03;;
52898;SDS011;38763;53.096;6.062;2023-05-24T04:59:00;27.80;;;4.60;;
52898;SDS011;38763;53.096;6.062;2023-05-24T05:01:26;19.73;;;3.80;;
52898;SDS011;38763;53.096;6.062;2023-05-24T05:03:52;25.02;;;4.43;;
52898;SDS011;38763;53.096;6.062;2023-05-24T05:06:17;23.55;;;4.28;;
52898;SDS011;38763;53.096;6.062;2023-05-24T05:08:43;21.25;;;3.95;;
52898;SDS011;38763;53.096;6.062;2023-05-24T05:11:09;22.60;;;4.35;;
52898;SDS011;38763;53.096;6.062;2023-05-24T05:13:34;20.55;;;4.50;;
52898;SDS011;38763;53.096;6.062;2023-05-24T05:16:01;24.92;;;4.93;;
52898;SDS011;38763;53.096;6.062;2023-05-24T05:18:26;21.00;;;4.15;;
52898;SDS011;38763;53.096;6.062;2023-05-24T05:20:52;21.30;;;4.07;;
52898;SDS011;38763;53.096;6.062;2023-05-24T05:23:18;18.15;;;4.50;;
52898;SDS011;38763;53.096;6.062;2023-05-24T05:25:43;18.15;;;3.45;;
52898;SDS011;38763;53.096;6.062;2023-05-24T05:28:09;18.13;;;4.40;;
52898;SDS011;38763;53.096;6.062;2023-05-24T05:30:35;22.48;;;4.28;;
52898;SDS011;38763;53.096;6.062;2023-05-24T05:33:00;17.40;;;4.60;;
52898;SDS011;38763;53.096;6.062;2023-05-24T05:35:26;19.80;;;4.65;;
52898;SDS011;38763;53.096;6.062;2023-05-24T05:37:51;24.30;;;4.38;;
52898;SDS011;38763;53.096;6.062;2023-05-24T05:40:17;24.55;;;4.55;;
52898;SDS011;38763;53.096;6.062;2023-05-24T05:42:43;21.88;;;4.50;;
52898;SDS011;38763;53.096;6.062;2023-05-24T05:45:08;19.80;;;3.92;;
52898;SDS011;38763;53.096;6.062;2023-05-24T05:47:34;24.67;;;4.40;;
52898;SDS011;38763;53.096;6.062;2023-05-24T05:50:00;29.75;;;4.50;;
52898;SDS011;38763;53.096;6.062;2023-05-24T05:52:26;20.77;;;4.05;;
52898;SDS011;38763;53.096;6.062;2023-05-24T05:54:51;24.63;;;4.93;;
52898;SDS011;38763;53.096;6.062;2023-05-24T05:57:18;24.55;;;4.30;;
52898;SDS011;38763;53.096;6.062;2023-05-24T05:59:48;20.95;;;4.32;;
52898;SDS011;38763;53.096;6.062;2023-05-24T06:02:14;23.88;;;4.55;;
52898;SDS011;38763;53.096;6.062;2023-05-24T06:04:39;20.58;;;4.05;;
52898;SDS011;38763;53.096;6.062;2023-05-24T06:07:05;22.58;;;4.80;;
52898;SDS011;38763;53.096;6.062;2023-05-24T06:09:31;20.20;;;4.15;;
52898;SDS011;38763;53.096;6.062;2023-05-24T06:11:56;20.23;;;3.70;;
52898;SDS011;38763;53.096;6.062;2023-05-24T06:14:22;23.45;;;4.57;;
52898;SDS011;38763;53.096;6.062;2023-05-24T06:16:49;24.15;;;4.72;;
52898;SDS011;38763;53.096;6.062;2023-05-24T06:19:16;24.95;;;4.75;;
52898;SDS011;38763;53.096;6.062;2023-05-24T06:21:46;20.50;;;3.75;;
52898;SDS011;38763;53.096;6.062;2023-05-24T06:24:13;20.20;;;4.10;;
52898;SDS011;38763;53.096;6.062;2023-05-24T06:26:39;23.77;;;4.10;;
52898;SDS011;38763;53.096;6.062;2023-05-24T06:29:06;20.88;;;3.72;;
52898;SDS011;38763;53.096;6.062;2023-05-24T06:31:32;20.67;;;3.80;;
52898;SDS011;38763;53.096;6.062;2023-05-24T06:33:58;15.65;;;3.85;;
52898;SDS011;38763;53.096;6.062;2023-05-24T06:36:24;22.55;;;4.55;;
52898;SDS011;38763;53.096;6.062;2023-05-24T06:38:50;21.23;;;3.60;;
52898;SDS011;38763;53.096;6.062;2023-05-24T06:41:15;20.10;;;3.65;;
52898;SDS011;38763;53.096;6.062;2023-05-24T06:43:41;18.42;;;3.97;;
52898;SDS011;38763;53.096;6.062;2023-05-24T06:46:08;20.65;;;3.63;;
52898;SDS011;38763;53.096;6.062;2023-05-24T06:48:34;21.35;;;4.15;;
52898;SDS011;38763;53.096;6.062;2023-05-24T06:50:59;18.95;;;3.42;;
52898;SDS011;38763;53.096;6.062;2023-05-24T06:53:25;15.02;;;3.55;;
52898;SDS011;38763;53.096;6.062;2023-05-24T06:55:51;17.42;;;3.53;;
52898;SDS011;38763;53.096;6.062;2023-05-24T06:58:17;16.48;;;3.40;;
52898;SDS011;38763;53.096;6.062;2023-05-24T07:00:42;19.02;;;3.55;;
52898;SDS011;38763;53.096;6.062;2023-05-24T07:03:10;17.58;;;3.67;;
52898;SDS011;38763;53.096;6.062;2023-05-24T07:05:37;17.45;;;3.72;;
52898;SDS011;38763;53.096;6.062;2023-05-24T07:08:02;18.10;;;4.20;;
52898;SDS011;38763;53.096;6.062;2023-05-24T07:10:28;19.77;;;4.00;;
52898;SDS011;38763;53.096;6.062;2023-05-24T07:12:54;19.15;;;3.63;;
52898;SDS011;38763;53.096;6.062;2023-05-24T07:15:20;17.58;;;3.78;;
52898;SDS011;38763;53.096;6.062;2023-05-24T07:17:45;21.17;;;4.50;;
52898;SDS011;38763;53.096;6.062;2023-05-24T07:20:12;18.30;;;3.55;;
52898;SDS011;38763;53.096;6.062;2023-05-24T07:22:38;13.32;;;3.22;;
52898;SDS011;38763;53.096;6.062;2023-05-24T07:25:05;17.23;;;3.22;;
52898;SDS011;38763;53.096;6.062;2023-05-24T07:27:31;13.75;;;3.47;;
52898;SDS011;38763;53.096;6.062;2023-05-24T07:29:56;13.18;;;3.20;;
52898;SDS011;38763;53.096;6.062;2023-05-24T07:32:22;16.63;;;3.20;;
52898;SDS011;38763;53.096;6.062;2023-05-24T07:34:48;20.02;;;4.32;;
52898;SDS011;38763;53.096;6.062;2023-05-24T07:37:14;13.65;;;3.60;;
52898;SDS011;38763;53.096;6.062;2023-05-24T07:39:41;20.27;;;3.40;;
52898;SDS011;38763;53.096;6.062;2023-05-24T07:42:07;14.15;;;3.35;;
52898;SDS011;38763;53.096;6.062;2023-05-24T07:44:33;16.35;;;3.17;;
52898;SDS011;38763;53.096;6.062;2023-05-24T07:46:59;13.35;;;2.80;;
52898;SDS011;38763;53.096;6.062;2023-05-24T07:49:26;15.40;;;3.15;;
52898;SDS011;38763;53.096;6.062;2023-05-24T07:51:52;13.70;;;2.90;;
52898;SDS011;38763;53.096;6.062;2023-05-24T07:54:20;16.27;;;3.70;;
52898;SDS011;38763;53.096;6.062;2023-05-24T07:56:47;16.48;;;2.78;;
52898;SDS011;38763;53.096;6.062;2023-05-24T07:59:13;13.50;;;2.88;;
52898;SDS011;38763;53.096;6.062;2023-05-24T08:01:39;14.90;;;2.95;;
52898;SDS011;38763;53.096;6.062;2023-05-24T08:04:05;13.57;;;2.85;;
52898;SDS011;38763;53.096;6.062;2023-05-24T08:06:33;18.52;;;3.13;;
52898;SDS011;38763;53.096;6.062;2023-05-24T08:09:00;9.90;;;2.53;;
52898;SDS011;38763;53.096;6.062;2023-05-24T08:11:29;12.68;;;3.78;;
52898;SDS011;38763;53.096;6.062;2023-05-24T08:13:55;15.05;;;2.85;;
52898;SDS011;38763;53.096;6.062;2023-05-24T08:16:20;15.93;;;3.13;;
52898;SDS011;38763;53.096;6.062;2023-05-24T08:18:46;14.95;;;2.85;;
52898;SDS011;38763;53.096;6.062;2023-05-24T08:21:12;13.32;;;3.45;;
52898;SDS011;38763;53.096;6.062;2023-05-24T08:23:37;15.25;;;3.10;;
52898;SDS011;38763;53.096;6.062;2023-05-24T08:26:03;12.48;;;2.70;;
52898;SDS011;38763;53.096;6.062;2023-05-24T08:28:29;13.43;;;3.08;;
52898;SDS011;38763;53.096;6.062;2023-05-24T08:30:54;11.90;;;3.33;;
52898;SDS011;38763;53.096;6.062;2023-05-24T08:33:21;12.23;;;2.80;;
52898;SDS011;38763;53.096;6.062;2023-05-24T08:35:47;12.77;;;3.17;;
52898;SDS011;38763;53.096;6.062;2023-05-24T08:38:14;16.15;;;2.97;;
52898;SDS011;38763;53.096;6.062;2023-05-24T08:40:39;14.00;;;3.40;;
52898;SDS011;38763;53.096;6.062;2023-05-24T08:43:05;14.82;;;2.88;;
52898;SDS011;38763;53.096;6.062;2023-05-24T08:45:36;15.35;;;3.13;;
52898;SDS011;38763;53.096;6.062;2023-05-24T08:48:03;16.45;;;3.45;;
52898;SDS011;38763;53.096;6.062;2023-05-24T08:50:30;13.18;;;3.10;;
52898;SDS011;38763;53.096;6.062;2023-05-24T08:52:56;16.85;;;3.15;;
52898;SDS011;38763;53.096;6.062;2023-05-24T08:55:23;16.40;;;3.20;;
52898;SDS011;38763;53.096;6.062;2023-05-24T08:57:49;22.33;;;3.47;;
52898;SDS011;38763;53.096;6.062;2023-05-24T09:00:16;17.65;;;3.13;;
52898;SDS011;38763;53.096;6.062;2023-05-24T09:02:44;12.30;;;3.22;;
52898;SDS011;38763;53.096;6.062;2023-05-24T09:05:11;13.82;;;3.42;;
52898;SDS011;38763;53.096;6.062;2023-05-24T09:07:42;17.75;;;3.10;;
52898;SDS011;38763;53.096;6.062;2023-05-24T09:10:09;12.88;;;3.00;;
52898;SDS011;38763;53.096;6.062;2023-05-24T09:12:36;13.52;;;3.03;;
52898;SDS011;38763;53.096;6.062;2023-05-24T09:15:03;17.20;;;3.35;;
52898;SDS011;38763;53.096;6.062;2023-05-24T09:17:29;14.70;;;3.63;;
52898;SDS011;38763;53.096;6.062;2023-05-24T09:19:56;17.08;;;3.42;;
52898;SDS011;38763;53.096;6.062;2023-05-24T09:22:25;16.45;;;3.50;;
52898;SDS011;38763;53.096;6.062;2023-05-24T09:24:52;11.85;;;2.70;;
52898;SDS011;38763;53.096;6.062;2023-05-24T09:27:22;10.95;;;2.53;;
52898;SDS011;38763;53.096;6.062;2023-05-24T09:29:48;13.68;;;2.65;;
52898;SDS011;38763;53.096;6.062;2023-05-24T09:32:15;9.82;;;3.10;;
52898;SDS011;38763;53.096;6.062;2023-05-24T09:34:42;13.27;;;3.00;;
52898;SDS011;38763;53.096;6.062;2023-05-24T09:37:16;12.90;;;3.00;;
52898;SDS011;38763;53.096;6.062;2023-05-24T09:39:43;14.40;;;2.97;;
52898;SDS011;38763;53.096;6.062;2023-05-24T09:42:14;12.07;;;2.97;;
52898;SDS011;38763;53.096;6.062;2023-05-24T09:44:48;11.05;;;2.83;;
52898;SDS011;38763;53.096;6.062;2023-05-24T09:47:26;12.85;;;2.40;;
52898;SDS011;38763;53.096;6.062;2023-05-24T09:49:57;11.50;;;2.80;;
52898;SDS011;38763;53.096;6.062;2023-05-24T09:52:23;14.57;;;3.47;;
52898;SDS011;38763;53.096;6.062;2023-05-24T09:54:49;13.35;;;3.45;;
52898;SDS011;38763;53.096;6.062;2023-05-24T09:57:15;15.00;;;3.05;;
52898;SDS011;38763;53.096;6.062;2023-05-24T09:59:41;18.10;;;3.10;;
52898;SDS011;38763;53.096;6.062;2023-05-24T10:02:11;10.05;;;2.60;;
52898;SDS011;38763;53.096;6.062;2023-05-24T10:04:40;16.67;;;3.08;;
52898;SDS011;38763;53.096;6.062;2023-05-24T10:07:06;13.73;;;3.00;;
52898;SDS011;38763;53.096;6.062;2023-05-24T10:09:33;10.05;;;2.60;;
52898;SDS011;38763;53.096;6.062;2023-05-24T10:12:03;13.57;;;3.00;;
52898;SDS011;38763;53.096;6.062;2023-05-24T10:14:33;13.32;;;3.13;;
52898;SDS011;38763;53.096;6.062;2023-05-24T10:17:01;19.67;;;3.45;;
52898;SDS011;38763;53.096;6.062;2023-05-24T10:19:29;12.48;;;3.22;;
52898;SDS011;38763;53.096;6.062;2023-05-24T10:21:56;13.57;;;2.85;;
52898;SDS011;38763;53.096;6.062;2023-05-24T10:24:24;12.40;;;3.38;;
52898;SDS011;38763;53.096;6.062;2023-05-24T10:26:53;13.50;;;3.03;;
52898;SDS011;38763;53.096;6.062;2023-05-24T10:29:45;10.40;;;3.28;;
52898;SDS011;38763;53.096;6.062;2023-05-24T10:32:34;10.23;;;2.70;;
52898;SDS011;38763;53.096;6.062;2023-05-24T10:35:03;12.75;;;3.15;;
52898;SDS011;38763;53.096;6.062;2023-05-24T10:37:30;15.10;;;3.30;;
52898;SDS011;38763;53.096;6.062;2023-05-24T10:39:56;9.32;;;3.00;;
52898;SDS011;38763;53.096;6.062;2023-05-24T10:42:23;11.40;;;2.42;;
52898;SDS011;38763;53.096;6.062;2023-05-24T10:44:49;9.75;;;2.50;;
52898;SDS011;38763;53.096;6.062;2023-05-24T10:47:15;11.45;;;2.70;;
52898;SDS011;38763;53.096;6.062;2023-05-24T10:52:18;11.85;;;2.53;;
52898;SDS011;38763;53.096;6.062;2023-05-24T10:55:04;11.10;;;2.60;;
52898;SDS011;38763;53.096;6.062;2023-05-24T10:57:32;8.52;;;2.65;;
52898;SDS011;38763;53.096;6.062;2023-05-24T11:02:49;10.18;;;2.65;;
52898;SDS011;38763;53.096;6.062;2023-05-24T11:08:14;10.27;;;2.97;;
52898;SDS011;38763;53.096;6.062;2023-05-24T11:11:12;12.27;;;2.67;;
52898;SDS011;38763;53.096;6.062;2023-05-24T11:13:41;12.57;;;2.65;;
52898;SDS011;38763;53.096;6.062;2023-05-24T11:16:07;15.38;;;3.20;;
52898;SDS011;38763;53.096;6.062;2023-05-24T11:18:33;13.70;;;3.13;;
52898;SDS011;38763;53.096;6.062;2023-05-24T11:21:06;13.93;;;3.30;;
52898;SDS011;38763;53.096;6.062;2023-05-24T11:23:33;9.05;;;2.70;;
52898;SDS011;38763;53.096;6.062;2023-05-24T11:25:59;8.70;;;2.45;;
52898;SDS011;38763;53.096;6.062;2023-05-24T11:28:26;11.32;;;3.15;;
52898;SDS011;38763;53.096;6.062;2023-05-24T11:30:53;10.90;;;2.70;;
52898;SDS011;38763;53.096;6.062;2023-05-24T11:35:46;12.93;;;3.28;;
52898;SDS011;38763;53.096;6.062;2023-05-24T11:38:14;12.77;;;2.85;;
52898;SDS011;38763;53.096;6.062;2023-05-24T11:40:41;15.98;;;3.03;;
52898;SDS011;38763;53.096;6.062;2023-05-24T11:43:15;12.85;;;2.72;;
52898;SDS011;38763;53.096;6.062;2023-05-24T11:45:42;8.73;;;2.70;;
52898;SDS011;38763;53.096;6.062;2023-05-24T11:48:09;11.40;;;2.50;;
52898;SDS011;38763;53.096;6.062;2023-05-24T11:50:38;11.75;;;2.78;;
52898;SDS011;38763;53.096;6.062;2023-05-24T11:53:14;11.80;;;3.33;;
52898;SDS011;38763;53.096;6.062;2023-05-24T11:55:42;11.05;;;2.78;;
52898;SDS011;38763;53.096;6.062;2023-05-24T11:58:24;8.55;;;2.38;;
52898;SDS011;38763;53.096;6.062;2023-05-24T12:00:56;12.38;;;3.15;;
52898;SDS011;38763;53.096;6.062;2023-05-24T12:03:22;10.65;;;2.47;;
52898;SDS011;38763;53.096;6.062;2023-05-24T12:05:48;9.35;;;2.60;;
52898;SDS011;38763;53.096;6.062;2023-05-24T12:08:13;9.82;;;2.63;;
52898;SDS011;38763;53.096;6.062;2023-05-24T12:10:40;11.48;;;2.15;;
52898;SDS011;38763;53.096;6.062;2023-05-24T12:13:20;8.15;;;2.17;;
52898;SDS011;38763;53.096;6.062;2023-05-24T12:15:51;9.32;;;2.20;;
52898;SDS011;38763;53.096;6.062;2023-05-24T12:18:20;11.35;;;2.78;;
52898;SDS011;38763;53.096;6.062;2023-05-24T12:20:48;10.50;;;2.40;;
52898;SDS011;38763;53.096;6.062;2023-05-24T12:23:15;10.88;;;3.20;;
52898;SDS011;38763;53.096;6.062;2023-05-24T12:25:42;11.15;;;2.70;;
52898;SDS011;38763;53.096;6.062;2023-05-24T12:28:08;7.97;;;2.38;;
52898;SDS011;38763;53.096;6.062;2023-05-24T12:30:35;11.32;;;2.33;;
52898;SDS011;38763;53.096;6.062;2023-05-24T12:33:06;8.50;;;2.33;;
52898;SDS011;38763;53.096;6.062;2023-05-24T12:35:36;8.32;;;2.28;;
52898;SDS011;38763;53.096;6.062;2023-05-24T12:38:07;8.20;;;2.30;;
52898;SDS011;38763;53.096;6.062;2023-05-24T12:40:33;6.32;;;2.00;;
52898;SDS011;38763;53.096;6.062;2023-05-24T12:42:58;6.90;;;2.45;;
52898;SDS011;38763;53.096;6.062;2023-05-24T12:45:24;7.82;;;2.30;;
52898;SDS011;38763;53.096;6.062;2023-05-24T12:47:52;9.45;;;2.25;;
52898;SDS011;38763;53.096;6.062;2023-05-24T12:50:22;9.38;;;2.17;;
52898;SDS011;38763;53.096;6.062;2023-05-24T12:52:49;9.75;;;2.38;;
52898;SDS011;38763;53.096;6.062;2023-05-24T12:55:19;8.82;;;2.42;;
52898;SDS011;38763;53.096;6.062;2023-05-24T12:57:49;9.82;;;2.10;;
52898;SDS011;38763;53.096;6.062;2023-05-24T13:00:22;8.90;;;2.22;;
52898;SDS011;38763;53.096;6.062;2023-05-24T13:02:51;8.50;;;2.20;;
52898;SDS011;38763;53.096;6.062;2023-05-24T13:05:20;7.95;;;2.22;;
52898;SDS011;38763;53.096;6.062;2023-05-24T13:07:46;6.45;;;2.05;;
52898;SDS011;38763;53.096;6.062;2023-05-24T13:10:13;7.38;;;2.42;;
52898;SDS011;38763;53.096;6.062;2023-05-24T13:12:39;8.80;;;1.98;;
52898;SDS011;38763;53.096;6.062;2023-05-24T13:15:06;10.07;;;2.40;;
52898;SDS011;38763;53.096;6.062;2023-05-24T13:17:32;8.52;;;2.05;;
52898;SDS011;38763;53.096;6.062;2023-05-24T13:20:00;11.52;;;2.22;;
52898;SDS011;38763;53.096;6.062;2023-05-24T13:22:30;6.68;;;1.50;;
52898;SDS011;38763;53.096;6.062;2023-05-24T13:24:55;6.50;;;2.25;;
52898;SDS011;38763;53.096;6.062;2023-05-24T13:27:21;7.53;;;2.00;;
52898;SDS011;38763;53.096;6.062;2023-05-24T13:29:47;6.78;;;2.00;;
52898;SDS011;38763;53.096;6.062;2023-05-24T13:32:13;7.65;;;2.10;;
52898;SDS011;38763;53.096;6.062;2023-05-24T13:34:38;8.82;;;2.17;;
52898;SDS011;38763;53.096;6.062;2023-05-24T13:37:04;10.95;;;2.00;;
52898;SDS011;38763;53.096;6.062;2023-05-24T13:39:31;6.07;;;2.28;;
52898;SDS011;38763;53.096;6.062;2023-05-24T13:41:57;8.20;;;2.03;;
52898;SDS011;38763;53.096;6.062;2023-05-24T13:44:24;9.43;;;2.13;;
52898;SDS011;38763;53.096;6.062;2023-05-24T13:46:50;7.35;;;2.30;;
52898;SDS011;38763;53.096;6.062;2023-05-24T13:49:16;13.13;;;2.67;;
52898;SDS011;38763;53.096;6.062;2023-05-24T13:51:42;13.43;;;2.33;;
52898;SDS011;38763;53.096;6.062;2023-05-24T13:54:07;9.85;;;2.47;;
52898;SDS011;38763;53.096;6.062;2023-05-24T13:56:33;8.60;;;2.40;;
52898;SDS011;38763;53.096;6.062;2023-05-24T13:59:00;9.25;;;2.42;;
52898;SDS011;38763;53.096;6.062;2023-05-24T14:01:26;7.50;;;2.40;;
52898;SDS011;38763;53.096;6.062;2023-05-24T14:03:52;8.00;;;2.58;;
52898;SDS011;38763;53.096;6.062;2023-05-24T14:06:18;12.95;;;2.88;;
52898;SDS011;38763;53.096;6.062;2023-05-24T14:08:45;9.70;;;2.35;;
52898;SDS011;38763;53.096;6.062;2023-05-24T14:11:12;12.43;;;2.80;;
52898;SDS011;38763;53.096;6.062;2023-05-24T14:13:39;7.55;;;2.10;;
52898;SDS011;38763;53.096;6.062;2023-05-24T14:16:05;7.15;;;2.03;;
52898;SDS011;38763;53.096;6.062;2023-05-24T14:18:31;9.35;;;2.20;;
52898;SDS011;38763;53.096;6.062;2023-05-24T14:20:57;7.85;;;2.10;;
52898;SDS011;38763;53.096;6.062;2023-05-24T14:23:23;10.63;;;2.33;;
52898;SDS011;38763;53.096;6.062;2023-05-24T14:25:48;11.13;;;2.25;;
52898;SDS011;38763;53.096;6.062;2023-05-24T14:28:16;8.10;;;2.28;;
52898;SDS011;38763;53.096;6.062;2023-05-24T14:30:42;12.27;;;2.92;;
52898;SDS011;38763;53.096;6.062;2023-05-24T14:33:08;9.95;;;2.78;;
52898;SDS011;38763;53.096;6.062;2023-05-24T14:35:36;9.77;;;2.45;;
52898;SDS011;38763;53.096;6.062;2023-05-24T14:38:05;9.23;;;2.65;;
52898;SDS011;38763;53.096;6.062;2023-05-24T14:40:32;13.30;;;2.90;;
52898;SDS011;38763;53.096;6.062;2023-05-24T14:45:30;10.20;;;2.40;;
52898;SDS011;38763;53.096;6.062;2023-05-24T14:47:57;11.30;;;2.90;;
52898;SDS011;38763;53.096;6.062;2023-05-24T14:50:24;5.88;;;2.35;;
52898;SDS011;38763;53.096;6.062;2023-05-24T14:52:50;11.90;;;2.47;;
52898;SDS011;38763;53.096;6.062;2023-05-24T14:55:16;10.43;;;2.50;;
52898;SDS011;38763;53.096;6.062;2023-05-24T14:57:42;9.80;;;1.92;;
52898;SDS011;38763;53.096;6.062;2023-05-24T15:00:08;9.73;;;2.60;;
52898;SDS011;38763;53.096;6.062;2023-05-24T15:02:34;10.32;;;2.65;;
52898;SDS011;38763;53.096;6.062;2023-05-24T15:05:01;10.23;;;2.40;;